Time;durP1;ratioP1;P1;durP2;ratioP2;P2;SDS_P1;SDS_P2;PMS_P1;PMS_P2;Temp;Humidity;BMP_temperature;BMP_pressure;BME280_temperature;BME280_humidity;BME280_pressure;Samples;Min_cycle;Max_cycle;Signal;HPM_P1;HPM_P2
2023/07/06 00:01:41;;;;;;;2.75;1.02;;;16.30;89.50;;;;;;4947049;28;20140;-16
2023/07/06 00:04:07;;;;;;;2.47;1.20;;;16.30;89.60;;;;;;4966348;28;20030;-17
2023/07/06 00:06:33;;;;;;;2.78;1.38;;;16.30;89.80;;;;;;4967853;28;20500;-16
2023/07/06 00:09:00;;;;;;;1.87;0.90;;;16.30;89.80;;;;;;4954076;28;20046;-17
2023/07/06 00:11:35;;;;;;;2.13;1.20;;;16.30;89.80;;;;;;4968552;28;20411;-16
2023/07/06 00:14:01;;;;;;;2.75;1.00;;;16.30;89.50;;;;;;4969504;28;20085;-17
2023/07/06 00:16:27;;;;;;;1.85;1.10;;;16.30;89.80;;;;;;4960416;28;20137;-16
2023/07/06 00:18:52;;;;;;;3.00;1.20;;;16.40;89.80;;;;;;4934490;28;20027;-16
2023/07/06 00:21:18;;;;;;;2.53;1.20;;;16.40;89.80;;;;;;4954800;28;20034;-16
2023/07/06 00:23:44;;;;;;;2.50;1.03;;;16.30;89.80;;;;;;4962183;28;20196;-16
2023/07/06 00:26:10;;;;;;;3.33;1.17;;;16.40;89.80;;;;;;4965796;28;20477;-17
2023/07/06 00:28:36;;;;;;;3.08;1.33;;;16.40;89.80;;;;;;4969774;28;20023;-16
2023/07/06 00:31:08;;;;;;;1.53;0.87;;;16.30;89.60;;;;;;4974410;28;20578;-17
2023/07/06 00:33:34;;;;;;;3.10;1.10;;;16.30;89.60;;;;;;4932333;28;20034;-16
2023/07/06 00:36:00;;;;;;;2.63;1.13;;;16.30;89.60;;;;;;4964219;28;20031;-17
2023/07/06 00:38:25;;;;;;;3.45;1.50;;;16.30;89.60;;;;;;4946796;28;20039;-16
2023/07/06 00:40:57;;;;;;;2.45;1.20;;;16.30;89.50;;;;;;4960350;28;20505;-16
2023/07/06 00:43:28;;;;;;;2.78;1.23;;;16.30;89.50;;;;;;4962661;28;20037;-16
2023/07/06 00:45:58;;;;;;;2.67;1.20;;;16.30;89.40;;;;;;4968617;28;20093;-16
2023/07/06 00:48:36;;;;;;;2.97;1.40;;;16.20;89.40;;;;;;4946952;28;20267;-16
2023/07/06 00:51:12;;;;;;;3.75;1.33;;;16.20;89.20;;;;;;4963878;28;20044;-17
2023/07/06 00:53:41;;;;;;;3.15;1.20;;;16.20;89.40;;;;;;4957326;28;20031;-16
2023/07/06 00:56:11;;;;;;;1.95;1.20;;;16.20;89.40;;;;;;4966271;28;20039;-17
2023/07/06 00:58:43;;;;;;;3.63;1.20;;;16.20;89.50;;;;;;4955461;28;20038;-16
2023/07/06 01:01:11;;;;;;;4.30;1.30;;;16.10;89.60;;;;;;4967914;28;20046;-17
2023/07/06 01:03:46;;;;;;;2.40;1.25;;;16.10;89.70;;;;;;4962685;28;20042;-16
2023/07/06 01:06:16;;;;;;;1.85;1.20;;;16.10;89.90;;;;;;4941394;28;20367;-16
2023/07/06 01:08:42;;;;;;;1.70;1.00;;;16.10;89.90;;;;;;4956301;28;20032;-16
2023/07/06 01:11:09;;;;;;;2.83;1.23;;;16.10;90.00;;;;;;4969535;28;20073;-16
2023/07/06 01:13:36;;;;;;;3.88;1.55;;;16.10;90.00;;;;;;4962481;28;20086;-16
2023/07/06 01:16:47;;;;;;;3.00;1.33;;;16.10;90.00;;;;;;4958107;28;20105;-16
2023/07/06 01:19:32;;;;;;;2.72;1.30;;;16.00;89.50;;;;;;4965060;28;20521;-16
2023/07/06 01:22:22;;;;;;;4.03;1.20;;;16.00;90.00;;;;;;4945630;28;20138;-16
2023/07/06 01:25:25;;;;;;;2.37;1.20;;;16.00;89.90;;;;;;4958485;28;20027;-16
2023/07/06 01:28:20;;;;;;;2.95;1.00;;;16.00;89.70;;;;;;4967223;28;20054;-16
2023/07/06 01:30:55;;;;;;;3.25;1.20;;;16.00;89.90;;;;;;4961581;28;20038;-16
2023/07/06 01:34:01;;;;;;;3.13;1.40;;;16.00;90.00;;;;;;4964567;28;20140;-16
2023/07/06 01:36:34;;;;;;;3.65;1.38;;;15.90;89.80;;;;;;4943114;28;21932;-15
2023/07/06 01:39:15;;;;;;;2.67;1.30;;;15.90;90.20;;;;;;4965165;28;20029;-16
2023/07/06 01:41:41;;;;;;;3.25;1.33;;;15.90;90.00;;;;;;4957937;28;20039;-16
2023/07/06 01:44:13;;;;;;;3.03;1.17;;;15.90;90.20;;;;;;4962672;28;20110;-16
2023/07/06 01:46:53;;;;;;;2.78;1.27;;;15.90;90.20;;;;;;4962699;28;20160;-16
2023/07/06 01:49:19;;;;;;;3.47;1.27;;;15.90;90.10;;;;;;4964710;28;20343;-16
2023/07/06 01:51:58;;;;;;;2.80;1.30;;;15.90;90.30;;;;;;4945018;28;20056;-15
2023/07/06 01:54:36;;;;;;;2.58;1.10;;;15.90;90.20;;;;;;4955102;28;20711;-16
2023/07/06 01:57:07;;;;;;;2.78;1.15;;;15.90;90.20;;;;;;4962833;28;20041;-16
2023/07/06 01:59:37;;;;;;;2.45;1.10;;;15.90;90.30;;;;;;4965638;28;20106;-16
2023/07/06 02:02:07;;;;;;;2.67;1.02;;;15.80;90.30;;;;;;4957483;28;20050;-16
2023/07/06 02:04:35;;;;;;;3.17;1.13;;;15.80;90.40;;;;;;4967609;28;20023;-16
2023/07/06 02:07:04;;;;;;;3.22;1.10;;;15.80;90.40;;;;;;4955677;28;20027;-16
2023/07/06 02:09:30;;;;;;;2.75;1.25;;;15.80;90.80;;;;;;4956360;28;20449;-16
2023/07/06 02:11:56;;;;;;;3.93;1.20;;;15.80;90.50;;;;;;4971814;28;20034;-17
2023/07/06 02:14:22;;;;;;;3.85;1.17;;;15.80;90.60;;;;;;4955566;28;20101;-16
2023/07/06 02:16:54;;;;;;;2.58;1.20;;;15.80;90.50;;;;;;4965870;28;20908;-16
2023/07/06 02:19:23;;;;;;;2.10;1.13;;;15.80;90.50;;;;;;4957027;28;20224;-16
2023/07/06 02:21:50;;;;;;;2.83;1.40;;;15.70;90.50;;;;;;4982575;28;20022;-16
2023/07/06 02:24:17;;;;;;;3.13;1.10;;;15.70;90.50;;;;;;4939268;28;20312;-16
2023/07/06 02:26:43;;;;;;;3.53;1.25;;;15.70;90.60;;;;;;4971000;28;20034;-16
2023/07/06 02:29:09;;;;;;;3.85;1.20;;;15.70;90.60;;;;;;4953703;28;20042;-16
2023/07/06 02:31:35;;;;;;;2.70;1.40;;;15.70;90.60;;;;;;4967092;28;20043;-16
2023/07/06 02:34:01;;;;;;;2.05;1.00;;;15.70;90.60;;;;;;4947760;28;20309;-16
2023/07/06 02:36:27;;;;;;;3.03;1.20;;;15.60;90.60;;;;;;4963548;28;20164;-16
2023/07/06 02:38:52;;;;;;;2.33;1.20;;;15.60;90.60;;;;;;4942186;28;20031;-16
2023/07/06 02:41:19;;;;;;;2.55;1.10;;;15.60;90.60;;;;;;4962512;28;20681;-16
2023/07/06 02:43:45;;;;;;;3.30;1.10;;;15.60;90.70;;;;;;4968181;28;20022;-17
2023/07/06 02:46:16;;;;;;;3.10;1.10;;;15.60;90.70;;;;;;4955764;28;20054;-17
2023/07/06 02:48:42;;;;;;;2.50;1.20;;;15.60;90.80;;;;;;4962357;28;20530;-16
2023/07/06 02:51:08;;;;;;;3.33;1.20;;;15.60;90.80;;;;;;4978961;28;20095;-17
2023/07/06 02:53:33;;;;;;;3.88;1.20;;;15.60;90.80;;;;;;4941210;28;20061;-16
2023/07/06 02:55:59;;;;;;;3.37;1.30;;;15.50;90.80;;;;;;4963478;28;20053;-16
2023/07/06 02:58:27;;;;;;;2.63;1.10;;;15.50;90.80;;;;;;4962418;28;20030;-16
2023/07/06 03:00:55;;;;;;;3.97;1.40;;;15.50;90.80;;;;;;4961698;28;20031;-16
2023/07/06 03:03:23;;;;;;;3.77;1.20;;;15.50;90.90;;;;;;4968531;28;20259;-16
2023/07/06 03:05:49;;;;;;;3.35;1.48;;;15.50;91.00;;;;;;4963262;28;20027;-16
2023/07/06 03:08:15;;;;;;;2.15;1.20;;;15.50;91.00;;;;;;4943503;28;20245;-16
2023/07/06 03:10:46;;;;;;;3.60;1.20;;;15.40;91.00;;;;;;4970505;28;20022;-16
2023/07/06 03:13:13;;;;;;;4.53;1.42;;;15.50;91.00;;;;;;4958534;28;20026;-16
2023/07/06 03:15:41;;;;;;;3.03;1.27;;;15.40;91.00;;;;;;4960645;28;20125;-15
2023/07/06 03:18:08;;;;;;;3.08;1.20;;;15.40;91.00;;;;;;4967226;28;20381;-17
2023/07/06 03:20:37;;;;;;;1.95;1.10;;;15.50;91.10;;;;;;4967028;28;20022;-16
2023/07/06 03:23:03;;;;;;;4.22;1.20;;;15.40;91.10;;;;;;4958727;28;20117;-16
2023/07/06 03:25:29;;;;;;;3.30;1.25;;;15.40;91.10;;;;;;4959254;28;20142;-16
2023/07/06 03:27:56;;;;;;;2.87;1.17;;;15.40;91.10;;;;;;4970518;28;20493;-16
2023/07/06 03:30:31;;;;;;;3.38;1.30;;;15.40;91.20;;;;;;4947859;28;20080;-16
2023/07/06 03:33:00;;;;;;;2.10;1.20;;;15.40;91.20;;;;;;4968515;28;20520;-16
2023/07/06 03:35:26;;;;;;;4.28;1.20;;;15.40;91.20;;;;;;4978724;28;20089;-16
2023/07/06 03:37:58;;;;;;;3.03;1.38;;;15.40;91.20;;;;;;4969562;28;20030;-16
2023/07/06 03:40:26;;;;;;;2.03;1.13;;;15.40;91.20;;;;;;4946285;28;20519;-15
2023/07/06 03:42:55;;;;;;;3.80;1.17;;;15.40;91.30;;;;;;4967891;28;20031;-16
2023/07/06 03:45:22;;;;;;;3.53;1.27;;;15.40;91.30;;;;;;4958552;28;20088;-16
2023/07/06 03:47:49;;;;;;;2.05;1.08;;;15.40;91.40;;;;;;4954974;28;20503;-16
2023/07/06 03:50:20;;;;;;;3.22;1.20;;;15.40;91.40;;;;;;4960409;28;20620;-16
2023/07/06 03:52:46;;;;;;;3.53;1.30;;;15.40;91.40;;;;;;4969778;28;20030;-16
2023/07/06 03:55:14;;;;;;;3.95;1.35;;;15.40;91.40;;;;;;4944466;28;20034;-16
2023/07/06 03:57:40;;;;;;;3.88;1.40;;;15.40;91.50;;;;;;4969782;28;20488;-16
2023/07/06 04:00:24;;;;;;;4.05;1.30;;;15.40;91.50;;;;;;4961630;28;20046;-17
2023/07/06 04:02:52;;;;;;;3.17;1.10;;;15.40;91.60;;;;;;4973394;28;20045;-16
2023/07/06 04:05:22;;;;;;;4.20;1.20;;;15.40;91.60;;;;;;4960707;28;20311;-16
2023/07/06 04:07:55;;;;;;;3.38;1.30;;;15.40;91.70;;;;;;4974365;28;20034;-16
2023/07/06 04:10:21;;;;;;;3.00;1.23;;;15.40;91.80;;;;;;4943408;28;20556;-16
2023/07/06 04:12:48;;;;;;;3.97;1.10;;;15.50;91.90;;;;;;4969832;28;20500;-16
2023/07/06 04:15:19;;;;;;;2.50;1.13;;;15.50;91.90;;;;;;4957535;28;20230;-16
2023/07/06 04:17:47;;;;;;;2.83;1.20;;;15.50;92.00;;;;;;4986184;28;20026;-16
2023/07/06 04:20:22;;;;;;;5.15;1.75;;;15.60;92.10;;;;;;4949500;28;20023;-16
2023/07/06 04:22:54;;;;;;;3.20;1.30;;;15.60;92.10;;;;;;4969643;28;20531;-16
2023/07/06 04:25:22;;;;;;;5.57;1.10;;;15.60;92.10;;;;;;4938991;28;20286;-16
2023/07/06 04:27:48;;;;;;;4.53;1.50;;;15.70;92.10;;;;;;4983300;28;20523;-16
2023/07/06 04:30:16;;;;;;;2.80;1.20;;;15.70;92.10;;;;;;4955522;28;20200;-16
2023/07/06 04:32:48;;;;;;;3.10;1.30;;;15.70;92.10;;;;;;4984450;28;20045;-16
2023/07/06 04:35:16;;;;;;;4.97;1.38;;;15.70;92.10;;;;;;4955943;28;20046;-16
2023/07/06 04:37:45;;;;;;;3.55;1.30;;;15.80;92.10;;;;;;4969105;28;20033;-16
2023/07/06 04:40:13;;;;;;;3.15;1.40;;;15.80;92.10;;;;;;4978181;28;20146;-16
2023/07/06 04:42:42;;;;;;;3.13;1.40;;;15.80;92.10;;;;;;4946532;28;20061;-16
2023/07/06 04:45:09;;;;;;;4.38;1.30;;;15.80;92.20;;;;;;4962698;28;20111;-16
2023/07/06 04:47:38;;;;;;;3.75;1.50;;;15.80;92.20;;;;;;4957374;28;20022;-16
2023/07/06 04:50:06;;;;;;;2.42;1.30;;;15.90;92.30;;;;;;4957113;28;20450;-16
2023/07/06 04:52:33;;;;;;;2.60;1.17;;;15.90;92.20;;;;;;4960662;28;20488;-16
2023/07/06 04:54:59;;;;;;;4.40;1.43;;;15.90;92.20;;;;;;4966826;28;20054;-16
2023/07/06 04:57:25;;;;;;;5.28;1.52;;;15.90;92.20;;;;;;4945226;28;20208;-16
2023/07/06 04:59:51;;;;;;;3.40;1.30;;;15.90;92.20;;;;;;4968733;28;20366;-16
2023/07/06 05:02:22;;;;;;;4.40;1.20;;;15.90;92.20;;;;;;4934727;28;20118;-16
2023/07/06 05:04:49;;;;;;;3.78;1.40;;;16.00;92.30;;;;;;4934129;28;20054;-16
2023/07/06 05:07:14;;;;;;;3.65;1.40;;;15.90;92.20;;;;;;4953103;28;20029;-16
2023/07/06 05:09:40;;;;;;;2.90;1.30;;;16.00;92.20;;;;;;4959758;28;20129;-16
2023/07/06 05:12:07;;;;;;;3.20;1.40;;;16.00;92.60;;;;;;4948850;28;20042;-16
2023/07/06 05:14:34;;;;;;;4.70;1.60;;;16.00;92.30;;;;;;4946470;28;20030;-16
2023/07/06 05:17:03;;;;;;;2.67;1.10;;;16.00;92.30;;;;;;4960976;28;20038;-16
2023/07/06 05:19:29;;;;;;;3.90;1.30;;;16.00;92.40;;;;;;4956277;28;20670;-16
2023/07/06 05:21:55;;;;;;;4.27;1.30;;;16.10;92.40;;;;;;4961069;28;20134;-16
2023/07/06 05:24:23;;;;;;;3.05;1.23;;;16.10;92.50;;;;;;4942762;28;20045;-17
2023/07/06 05:26:49;;;;;;;3.80;1.20;;;16.00;92.40;;;;;;4966755;28;20179;-16
2023/07/06 05:29:15;;;;;;;5.82;1.98;;;16.10;92.50;;;;;;4941953;28;20026;-16
2023/07/06 05:31:44;;;;;;;4.70;1.45;;;16.10;92.50;;;;;;4960501;28;20280;-16
2023/07/06 05:34:10;;;;;;;3.80;1.27;;;16.20;92.60;;;;;;4970061;28;20524;-16
2023/07/06 05:36:36;;;;;;;4.73;1.70;;;16.20;92.60;;;;;;4945074;28;20282;-16
2023/07/06 05:39:03;;;;;;;5.10;1.58;;;16.20;92.70;;;;;;4948565;28;20030;-16
2023/07/06 05:41:29;;;;;;;6.28;1.55;;;16.20;92.70;;;;;;4965850;28;20030;-16
2023/07/06 05:43:55;;;;;;;3.77;1.20;;;16.30;92.70;;;;;;4946585;28;20035;-16
2023/07/06 05:46:20;;;;;;;4.30;1.38;;;16.30;92.70;;;;;;4966789;28;20026;-16
2023/07/06 05:48:46;;;;;;;6.20;1.43;;;16.30;92.80;;;;;;4954543;28;20161;-16
2023/07/06 05:51:12;;;;;;;3.78;1.50;;;16.40;92.80;;;;;;4967414;28;20049;-16
2023/07/06 05:53:37;;;;;;;4.20;1.50;;;16.50;92.90;;;;;;4939870;28;20297;-16
2023/07/06 05:56:03;;;;;;;4.77;1.70;;;16.50;92.80;;;;;;4967473;28;20022;-16
2023/07/06 05:58:29;;;;;;;3.20;1.65;;;16.50;92.80;;;;;;4967325;28;20027;-16
2023/07/06 06:00:57;;;;;;;3.97;1.50;;;16.50;92.90;;;;;;4956229;28;20046;-16
2023/07/06 06:03:22;;;;;;;4.25;1.42;;;16.60;92.90;;;;;;4964304;28;20448;-17
2023/07/06 06:05:50;;;;;;;4.07;1.60;;;16.60;92.90;;;;;;4955347;28;20027;-16
2023/07/06 06:08:18;;;;;;;3.10;1.40;;;16.70;93.00;;;;;;4970940;28;20527;-17
2023/07/06 06:10:44;;;;;;;4.60;1.40;;;16.80;93.10;;;;;;4945989;28;20033;-16
2023/07/06 06:13:10;;;;;;;4.40;1.50;;;16.80;93.10;;;;;;4958104;28;20054;-16
2023/07/06 06:15:36;;;;;;;5.43;1.52;;;16.90;93.10;;;;;;4938612;28;20327;-16
2023/07/06 06:18:03;;;;;;;3.88;1.50;;;16.90;93.10;;;;;;4966369;28;20023;-16
2023/07/06 06:20:30;;;;;;;5.03;1.60;;;17.00;93.10;;;;;;4948163;28;20069;-17
2023/07/06 06:22:58;;;;;;;4.27;1.40;;;17.00;93.10;;;;;;4954167;28;20568;-16
2023/07/06 06:25:24;;;;;;;4.22;1.45;;;17.10;93.10;;;;;;4947131;28;20038;-16
2023/07/06 06:27:49;;;;;;;3.55;1.42;;;17.20;93.10;;;;;;4961632;28;20296;-16
2023/07/06 06:30:15;;;;;;;4.32;1.58;;;17.20;93.10;;;;;;4962078;28;20085;-17
2023/07/06 06:32:42;;;;;;;4.43;1.70;;;17.30;93.20;;;;;;4941433;28;20037;-16
2023/07/06 06:35:28;;;;;;;3.30;1.40;;;17.30;93.10;;;;;;4968231;28;20463;-16
2023/07/06 06:37:54;;;;;;;2.83;1.50;;;17.40;92.90;;;;;;4966260;28;20027;-16
2023/07/06 06:40:21;;;;;;;4.50;1.70;;;17.40;93.30;;;;;;4946488;28;20023;-17
2023/07/06 06:42:48;;;;;;;5.80;1.52;;;17.50;93.40;;;;;;4958304;28;20046;-17
2023/07/06 06:45:18;;;;;;;5.13;1.53;;;17.60;93.40;;;;;;4964461;28;20019;-17
2023/07/06 06:47:44;;;;;;;4.55;1.60;;;17.70;93.40;;;;;;4937080;28;20244;-17
2023/07/06 06:50:14;;;;;;;3.67;1.40;;;17.80;93.40;;;;;;4949716;28;20096;-17
2023/07/06 06:52:43;;;;;;;3.22;1.35;;;17.80;93.30;;;;;;4961787;28;20301;-17
2023/07/06 06:55:10;;;;;;;5.47;1.55;;;17.90;93.30;;;;;;4956285;28;20732;-17
2023/07/06 06:57:37;;;;;;;6.10;1.60;;;18.00;93.40;;;;;;4951842;28;20173;-17
2023/07/06 07:00:06;;;;;;;5.90;1.80;;;18.00;93.30;;;;;;4965651;28;20601;-17
2023/07/06 07:02:32;;;;;;;4.68;1.35;;;18.10;93.20;;;;;;4938881;28;20097;-17
2023/07/06 07:05:00;;;;;;;5.15;1.63;;;18.20;93.20;;;;;;4968085;28;20160;-17
2023/07/06 07:07:27;;;;;;;3.78;1.50;;;18.20;93.30;;;;;;4954364;28;20065;-17
2023/07/06 07:09:53;;;;;;;3.60;1.43;;;18.20;93.20;;;;;;4966823;28;20037;-17
2023/07/06 07:12:20;;;;;;;3.45;1.30;;;18.30;93.10;;;;;;4946838;28;20054;-17
2023/07/06 07:14:46;;;;;;;3.85;1.30;;;18.40;93.20;;;;;;4972903;28;20035;-17
2023/07/06 07:17:14;;;;;;;2.80;1.30;;;18.50;93.20;;;;;;4959357;28;20283;-17
2023/07/06 07:19:40;;;;;;;4.25;1.20;;;18.50;93.30;;;;;;4945980;28;20300;-17
2023/07/06 07:22:06;;;;;;;4.53;1.50;;;18.50;93.30;;;;;;4954108;28;20067;-17
2023/07/06 07:24:33;;;;;;;5.63;1.58;;;18.60;93.30;;;;;;4963593;28;20026;-17
2023/07/06 07:27:02;;;;;;;3.17;1.67;;;18.60;93.20;;;;;;4953420;28;20397;-17
2023/07/06 07:29:28;;;;;;;4.35;1.50;;;18.70;93.00;;;;;;4948248;28;20540;-17
2023/07/06 07:31:54;;;;;;;3.15;1.40;;;18.80;93.30;;;;;;4966789;28;20045;-17
2023/07/06 07:34:20;;;;;;;2.97;1.50;;;18.80;93.30;;;;;;4940182;28;20030;-17
2023/07/06 07:36:46;;;;;;;4.68;1.60;;;18.90;93.40;;;;;;4963441;28;20254;-17
2023/07/06 07:39:16;;;;;;;4.68;1.45;;;18.90;93.20;;;;;;4957903;28;20037;-17
2023/07/06 07:41:45;;;;;;;4.33;1.47;;;19.00;93.30;;;;;;4951353;28;20193;-17
2023/07/06 07:44:11;;;;;;;3.00;1.40;;;19.10;93.40;;;;;;4959268;28;20589;-17
2023/07/06 07:46:37;;;;;;;2.90;1.30;;;19.20;93.50;;;;;;4967748;28;20339;-17
2023/07/06 07:49:03;;;;;;;2.87;1.43;;;19.30;93.50;;;;;;4972360;28;20098;-17
2023/07/06 07:51:31;;;;;;;3.95;1.45;;;19.40;93.50;;;;;;4942687;28;20373;-17
2023/07/06 07:53:57;;;;;;;3.80;1.40;;;19.50;93.50;;;;;;4955315;28;20045;-17
2023/07/06 07:56:25;;;;;;;3.78;1.60;;;19.60;93.70;;;;;;4960030;28;20505;-17
2023/07/06 07:58:51;;;;;;;3.15;1.40;;;19.80;93.90;;;;;;4952418;28;20426;-17
2023/07/06 08:01:21;;;;;;;3.43;1.60;;;19.90;94.20;;;;;;4969857;28;20047;-17
2023/07/06 08:03:47;;;;;;;2.45;1.40;;;20.10;93.60;;;;;;4970344;28;20387;-17
2023/07/06 08:06:16;;;;;;;4.18;1.60;;;20.30;93.60;;;;;;4944655;28;20574;-17
2023/07/06 08:08:43;;;;;;;3.30;1.45;;;20.40;93.60;;;;;;4955706;28;20339;-17
2023/07/06 08:11:20;;;;;;;2.85;1.40;;;20.60;94.00;;;;;;4981123;28;20058;-17
2023/07/06 08:13:47;;;;;;;2.97;1.50;;;20.80;93.60;;;;;;4945410;28;20667;-17
2023/07/06 08:16:13;;;;;;;3.03;1.20;;;21.00;95.10;;;;;;4965747;28;20128;-17
2023/07/06 08:18:41;;;;;;;3.38;1.73;;;21.40;95.50;;;;;;4963915;28;20042;-17
2023/07/06 08:21:08;;;;;;;3.77;1.53;;;21.70;95.00;;;;;;4923823;28;20037;-17
2023/07/06 08:23:38;;;;;;;3.65;1.30;;;22.00;95.60;;;;;;4956930;28;20121;-17
2023/07/06 08:26:04;;;;;;;3.13;1.30;;;22.40;95.60;;;;;;4975716;28;20025;-17
2023/07/06 08:28:31;;;;;;;2.75;1.38;;;22.80;94.80;;;;;;4952327;28;20587;-17
2023/07/06 08:31:02;;;;;;;2.88;1.40;;;22.90;93.50;;;;;;4951633;28;20396;-17
2023/07/06 08:33:32;;;;;;;2.63;1.30;;;23.20;92.90;;;;;;4968052;28;20199;-17
2023/07/06 08:35:58;;;;;;;2.92;1.30;;;23.30;93.20;;;;;;4965944;28;20034;-17
2023/07/06 08:38:24;;;;;;;2.55;1.40;;;23.40;92.60;;;;;;4937266;28;20042;-17
2023/07/06 08:40:52;;;;;;;2.38;1.25;;;23.50;92.60;;;;;;4956756;28;20041;-17
2023/07/06 08:43:25;;;;;;;3.07;1.33;;;23.60;93.00;;;;;;4957019;28;20456;-17
2023/07/06 08:45:58;;;;;;;3.60;1.50;;;23.80;92.00;;;;;;4955306;28;20031;-17
2023/07/06 08:48:26;;;;;;;3.58;1.35;;;24.00;91.70;;;;;;4976661;28;20354;-17
2023/07/06 08:50:59;;;;;;;4.32;1.38;;;24.00;91.20;;;;;;4967448;28;20105;-17
2023/07/06 08:53:30;;;;;;;3.97;1.30;;;24.00;90.30;;;;;;4951681;28;20031;-17
2023/07/06 08:55:57;;;;;;;3.37;1.50;;;24.00;90.90;;;;;;4956337;28;20054;-17
2023/07/06 08:58:29;;;;;;;4.25;1.30;;;24.10;91.40;;;;;;4952350;28;20424;-17
2023/07/06 09:01:12;;;;;;;3.05;1.20;;;24.20;91.10;;;;;;4964920;28;20531;-17
2023/07/06 09:04:15;;;;;;;2.70;1.20;;;24.30;90.50;;;;;;4980076;28;20601;-17
2023/07/06 09:06:47;;;;;;;3.08;1.30;;;24.30;86.00;;;;;;4938880;28;20177;-17
2023/07/06 09:09:13;;;;;;;2.53;1.20;;;24.30;90.20;;;;;;4968076;28;20085;-17
2023/07/06 09:11:43;;;;;;;2.63;1.30;;;24.40;91.90;;;;;;4969443;28;20026;-17
2023/07/06 09:14:13;;;;;;;2.72;1.20;;;24.70;92.00;;;;;;4955531;28;20044;-17
2023/07/06 09:16:58;;;;;;;2.92;1.30;;;24.90;91.90;;;;;;4947557;28;20533;-17
2023/07/06 09:19:25;;;;;;;2.45;1.40;;;25.10;88.30;;;;;;4976420;28;20046;-17
2023/07/06 09:21:54;;;;;;;3.03;1.20;;;25.40;90.80;;;;;;4981565;28;20110;-17
2023/07/06 09:24:27;;;;;;;2.53;1.23;;;25.50;90.90;;;;;;4942165;28;20046;-17
2023/07/06 09:26:57;;;;;;;1.92;1.30;;;25.70;91.40;;;;;;4968178;28;20457;-17
2023/07/06 09:29:37;;;;;;;2.20;1.15;;;26.00;91.10;;;;;;4952224;28;20026;-17
2023/07/06 09:32:21;;;;;;;3.20;1.20;;;26.20;89.50;;;;;;4965807;28;20038;-17
2023/07/06 09:34:55;;;;;;;3.33;1.20;;;26.30;85.50;;;;;;4958363;28;20261;-17
2023/07/06 09:37:21;;;;;;;2.70;1.10;;;26.40;85.60;;;;;;4964484;28;20523;-17
2023/07/06 09:40:06;;;;;;;2.97;1.30;;;26.30;86.30;;;;;;4937725;28;20167;-17
2023/07/06 09:42:33;;;;;;;1.70;1.20;;;26.30;82.60;;;;;;4955997;28;20245;-17
2023/07/06 09:45:01;;;;;;;3.05;1.27;;;26.30;86.10;;;;;;4947851;28;20034;-17
2023/07/06 09:47:30;;;;;;;2.43;1.10;;;26.30;86.00;;;;;;4966368;28;20039;-17
2023/07/06 09:50:18;;;;;;;1.88;1.00;;;26.30;85.30;;;;;;4974686;28;20113;-17
2023/07/06 09:52:45;;;;;;;1.45;1.00;;;26.30;82.60;;;;;;4978236;28;20085;-17
2023/07/06 09:55:16;;;;;;;2.50;1.10;;;26.20;83.80;;;;;;4938017;28;20034;-17
2023/07/06 09:57:44;;;;;;;1.75;1.05;;;26.20;83.40;;;;;;4955695;28;20194;-17
2023/07/06 10:00:22;;;;;;;2.60;1.10;;;26.10;82.60;;;;;;4967314;28;20041;-17
2023/07/06 10:03:09;;;;;;;4.30;1.10;;;25.90;80.90;;;;;;4958044;28;23941;-17
2023/07/06 10:05:53;;;;;;;1.45;1.05;;;25.90;80.90;;;;;;4961250;28;20634;-17
2023/07/06 10:08:46;;;;;;;1.90;1.00;;;26.00;81.00;;;;;;4968256;28;20454;-17
2023/07/06 10:11:15;;;;;;;3.03;1.40;;;26.10;83.20;;;;;;4942469;28;20536;-17
2023/07/06 10:13:53;;;;;;;1.70;1.10;;;26.30;86.50;;;;;;4953926;28;20305;-17
2023/07/06 10:16:50;;;;;;;2.45;1.10;;;26.50;81.80;;;;;;4958671;28;20728;-17
2023/07/06 10:19:29;;;;;;;1.98;1.10;;;26.80;80.70;;;;;;4951109;28;20245;-17
2023/07/06 10:22:07;;;;;;;2.88;1.17;;;27.00;82.40;;;;;;4966308;28;20039;-17
2023/07/06 10:24:45;;;;;;;2.15;1.10;;;27.10;81.00;;;;;;4937203;28;20026;-17
2023/07/06 10:27:21;;;;;;;3.43;1.10;;;27.30;81.40;;;;;;4947925;28;20463;-17
2023/07/06 10:29:51;;;;;;;4.55;1.13;;;27.30;81.20;;;;;;4954374;28;20338;-17
2023/07/06 10:32:24;;;;;;;2.63;1.00;;;27.40;81.00;;;;;;4962287;28;20069;-17
2023/07/06 10:34:54;;;;;;;2.85;1.20;;;27.40;79.30;;;;;;4941600;28;20054;-17
2023/07/06 10:37:24;;;;;;;1.95;1.10;;;27.30;77.20;;;;;;4963330;28;20476;-17
2023/07/06 10:40:07;;;;;;;3.27;1.10;;;27.10;77.50;;;;;;4966648;28;20014;-17
2023/07/06 10:42:33;;;;;;;2.97;1.00;;;26.90;74.30;;;;;;4937749;28;20046;-17
2023/07/06 10:45:02;;;;;;;2.15;1.20;;;26.70;77.70;;;;;;4944105;28;20056;-17
2023/07/06 10:47:36;;;;;;;1.75;1.20;;;26.70;79.90;;;;;;4962989;28;20030;-17
2023/07/06 10:50:07;;;;;;;2.13;1.00;;;26.90;79.20;;;;;;4965878;28;20064;-17
2023/07/06 10:52:38;;;;;;;2.15;0.90;;;27.10;80.00;;;;;;4945386;28;20584;-17
2023/07/06 10:55:19;;;;;;;1.80;1.00;;;27.30;80.90;;;;;;4966966;28;20038;-17
2023/07/06 10:57:54;;;;;;;2.35;1.30;;;27.60;81.30;;;;;;4949651;28;20046;-17
2023/07/06 11:00:29;;;;;;;1.90;1.10;;;27.90;80.50;;;;;;4964176;28;20529;-17
2023/07/06 11:02:56;;;;;;;2.00;1.10;;;28.10;81.50;;;;;;4964762;28;20019;-17
2023/07/06 11:05:32;;;;;;;1.52;1.00;;;28.30;80.50;;;;;;4965284;28;20117;-17
2023/07/06 11:08:05;;;;;;;1.17;1.08;;;28.40;76.30;;;;;;4949577;28;20069;-17
2023/07/06 11:10:43;;;;;;;2.22;1.30;;;28.40;77.50;;;;;;4961842;28;20409;-17
2023/07/06 11:13:12;;;;;;;3.13;1.50;;;28.40;75.10;;;;;;4954291;28;20058;-17
2023/07/06 11:15:43;;;;;;;2.30;1.10;;;28.50;80.10;;;;;;4949447;28;20128;-17
2023/07/06 11:18:24;;;;;;;1.60;1.00;;;28.70;77.20;;;;;;4966216;28;20030;-17
2023/07/06 11:20:57;;;;;;;1.83;1.00;;;28.80;74.70;;;;;;4945063;28;20042;-17
2023/07/06 11:23:41;;;;;;;1.95;1.10;;;29.10;78.30;;;;;;4949682;28;20374;-17
2023/07/06 11:26:40;;;;;;;1.85;1.20;;;29.40;77.70;;;;;;4970616;28;20089;-17
2023/07/06 11:29:07;;;;;;;1.30;1.00;;;29.70;74.80;;;;;;4929260;28;20568;-17
2023/07/06 11:31:53;;;;;;;1.35;1.00;;;30.00;79.80;;;;;;4957644;28;20728;-17
2023/07/06 11:34:51;;;;;;;1.52;1.27;;;30.20;78.90;;;;;;4962873;28;20066;-17
2023/07/06 11:38:05;;;;;;;2.85;1.20;;;30.60;75.10;;;;;;4949688;28;20058;-17
2023/07/06 11:40:31;;;;;;;2.20;1.17;;;30.90;72.90;;;;;;4967149;28;20224;-17
2023/07/06 11:43:18;;;;;;;2.37;1.20;;;31.20;77.50;;;;;;4972461;28;20549;-17
2023/07/06 11:45:50;;;;;;;2.15;1.15;;;31.40;68.00;;;;;;4941625;28;20769;-17
2023/07/06 11:48:49;;;;;;;1.55;1.10;;;31.50;74.90;;;;;;4965305;28;20045;-17
2023/07/06 11:51:15;;;;;;;2.40;1.30;;;31.70;71.30;;;;;;4939988;28;20073;-17
2023/07/06 11:53:54;;;;;;;2.17;1.30;;;31.70;71.90;;;;;;4953792;28;20030;-17
2023/07/06 11:56:35;;;;;;;1.40;1.00;;;31.70;69.20;;;;;;4943216;28;23107;-17
2023/07/06 11:59:04;;;;;;;2.35;1.30;;;31.70;67.40;;;;;;4953920;28;20023;-17
2023/07/06 12:01:45;;;;;;;3.25;1.20;;;31.60;69.30;;;;;;4941153;28;23092;-18
2023/07/06 12:04:20;;;;;;;1.58;1.10;;;31.60;66.90;;;;;;4965328;28;20038;-18
2023/07/06 12:06:48;;;;;;;1.38;1.10;;;31.50;65.40;;;;;;4952714;28;20031;-17
2023/07/06 12:09:18;;;;;;;1.70;1.00;;;31.30;65.80;;;;;;4949484;28;20042;-17
2023/07/06 12:11:47;;;;;;;1.60;1.02;;;31.10;63.00;;;;;;4966551;28;20114;-17
2023/07/06 12:14:20;;;;;;;1.73;1.15;;;30.90;65.00;;;;;;4956016;28;20115;-17
2023/07/06 12:16:49;;;;;;;1.98;1.10;;;30.70;63.20;;;;;;4960198;28;20677;-17
2023/07/06 12:19:17;;;;;;;2.40;1.40;;;30.50;64.60;;;;;;4955193;28;20318;-17
2023/07/06 12:21:55;;;;;;;1.43;1.00;;;30.50;66.40;;;;;;4985832;28;20029;-17
2023/07/06 12:24:26;;;;;;;2.05;1.20;;;30.50;63.90;;;;;;4950471;28;20227;-17
2023/07/06 12:26:55;;;;;;;4.93;1.15;;;30.70;66.90;;;;;;4965127;28;20161;-17
2023/07/06 12:29:29;;;;;;;2.05;1.30;;;30.90;66.70;;;;;;4957984;28;20189;-17
2023/07/06 12:32:00;;;;;;;1.80;1.20;;;31.10;68.10;;;;;;4941293;28;20642;-17
2023/07/06 12:34:30;;;;;;;1.83;1.20;;;31.40;66.20;;;;;;4956194;28;20048;-17
2023/07/06 12:37:00;;;;;;;2.03;1.40;;;31.50;66.20;;;;;;4963822;28;20030;-17
2023/07/06 12:39:27;;;;;;;2.50;1.55;;;31.80;66.30;;;;;;4951208;28;20245;-17
2023/07/06 12:41:54;;;;;;;2.88;1.75;;;31.90;65.20;;;;;;4968345;28;20295;-17
2023/07/06 12:44:22;;;;;;;2.38;1.45;;;32.10;65.80;;;;;;4957454;28;20824;-17
2023/07/06 12:46:52;;;;;;;1.83;1.20;;;32.20;65.40;;;;;;4967287;28;20026;-17
2023/07/06 12:49:22;;;;;;;2.25;1.23;;;32.30;62.90;;;;;;4934240;28;20405;-17
2023/07/06 12:51:54;;;;;;;1.92;1.25;;;32.30;62.60;;;;;;4966156;28;20038;-17
2023/07/06 12:54:29;;;;;;;1.90;1.13;;;32.30;59.90;;;;;;4962613;28;20386;-17
2023/07/06 12:57:16;;;;;;;1.38;1.23;;;32.20;59.10;;;;;;4962619;28;20042;-17
2023/07/06 12:59:42;;;;;;;1.87;1.20;;;32.00;59.30;;;;;;4952625;28;20046;-17
2023/07/06 13:02:20;;;;;;;1.42;1.17;;;31.80;60.40;;;;;;4965008;28;20054;-17
2023/07/06 13:04:47;;;;;;;1.85;1.10;;;31.70;58.00;;;;;;4930552;28;20042;-17
2023/07/06 13:07:24;;;;;;;3.17;1.20;;;31.60;60.10;;;;;;4964113;28;20536;-17